COOK1: Arkansas River Nr Coolidge, KS

                                SHEF ID:       COOK1     ARKANSAS R NR COOLIDGE, KS
STATION TYPE:
Regulating: Stage = 8.00, Flow = 2050

PRECIP STAGE STAGE(2) RIV-FLOW WTR-TEMP CONDUCT BAT-LOAD
in ft ft cfs F umho/cm volt
Ccp-Rev Ccp-Rev Ccp-Rev Ccp-Rev Ccp-Rev Ccp-Rev Ccp-Rev
(America/Chicago)
06/20 00:00 0.00 2.54 2.62 57 66.18 5796 12.95
06/20 01:00 0.00 2.53 2.62 56 65.97 5807 12.95
06/20 02:00 0.00 2.53 2.60 56 65.79 5814 12.89
06/20 03:00 0.00 2.52 2.59 55 65.71 5827 12.89
06/20 04:00 0.00 2.50 2.60 54 65.62 5859 12.83
06/20 05:00 0.00 2.50 2.60 54 65.34 5888 12.83
06/20 06:00 0.00 2.51 2.59 55 65.05 5920 12.83
06/20 07:00 0.00 2.51 2.61 55 64.99 5981 12.83
06/20 08:00 0.00 2.53 2.62 56 65.28 6028 12.83
06/20 09:00 0.00 2.53 2.62 56 66.51 6037 13.00
06/20 10:00 0.00 2.54 2.63 57 68.16 5974 13.18
06/20 11:00 0.00 2.56 2.63 59 71.04 5906 13.53
06/20 12:00 0.00 2.55 2.63 58 73.94 5846 13.71
06/20 13:00 0.00 2.55 2.63 58 76.57 5809 13.77
06/20 14:00 0.00 2.53 2.63 56 78.37 5798 13.83
06/20 15:00 0.00 2.55 2.63 58 79.86 5810 13.77
06/20 16:00 0.00 2.55 2.64 58 81.25 5832 13.65
06/20 17:00 0.00 2.54 2.63 57 81.95 5843 13.48
06/20 18:00 0.00 2.54 2.64 57 81.14 5837 13.30
06/20 19:00 0.00 2.55 2.62 58 79.84 5821 13.18
06/20 20:00 0.00 2.54 2.63 57 78.49 5805 13.18
06/20 21:00 0.00 2.55 2.62 58 76.64 5794 13.07
06/20 22:00 0.00 2.54 2.63 57 75.22 5791 13.00
06/20 23:00 ---- ---- ---- ---- ---- ---- ----
Data processed at Fri 21Jun2024 04:30 GMT

Parsing this webpage?

Checkout our new Data API! CWMSDataAPI (CDA)

Timeseries IDs (TSIDs)

TSIDs used from left to right in the data table
COOL.Precip-Inc.Total.1Hour.1Hour.Ccp-Rev
COOL.Stage.Inst.1Hour.0.Ccp-Rev
COOL.Stage-Alt.Inst.1Hour.0.Ccp-Rev
COOL.Flow.Inst.1Hour.0.Ccp-Rev
COOL.Temp-Water.Inst.1Hour.0.Ccp-Rev
COOL.Cond.Inst.1Hour.0.Ccp-Rev
COOL.Volt-Battery Load.Inst.1Hour.0.Ccp-Rev

                            

All information presented herein is the property of the government of the United States of America and may be revised or deleted at any time without prior notice. Dissemination of this information without the expressed written consent of the Public Affairs Office, Tulsa District U.S. Army Corps of Engineers is strictly prohibited. These data are gathered electronically and, as presented, have NOT undergone any form of quality control. These data are NOT guaranteed to be valid or correct.